KTPF/TPF METAR and TAF weather

Enter ICAO airport designator
Station Type Date Time Source
KTPF METAR 2021/05/14 21:55 UTC NOAA

KTPF 142155Z AUTO 08007KT 10SM SCT060 BKN070 OVC110 30/16 A3004 RMK AO2


Station Type Date Time Source
KTPF Decoded METAR 2021/05/14 21:55 UTC NOAA

Tampa, Peter O Knight Airport, FL, United States (KTPF) 27-54-56N 082-26-57W
May 14, 2021 - 05:55 PM EDT / 2021.05.14 2155 UTC
Wind: from the E (080 degrees) at 8 MPH (7 KT):0
Visibility: 10 mile(s):0
Sky conditions: overcast
Temperature: 86 F (30 C)
Dew Point: 60 F (16 C)
Relative Humidity: 42%
Pressure (altimeter): 30.04 in. Hg (1017 hPa)
ob: KTPF 142155Z AUTO 08007KT 10SM SCT060 BKN070 OVC110 30/16 A3004 RMK AO2
cycle: 22

Station Type Date Time Source
KTPF TAF UTC NOAA

Error!

Example: see airport list